sensor_id;sensor_type;location;lat;lon;timestamp;P1;durP1;ratioP1;P2;durP2;ratioP2
4508;SDS011;2267;48.816;9.230;2023-06-24T00:00:09;6.53;;;5.93;;
4508;SDS011;2267;48.816;9.230;2023-06-24T00:02:38;7.40;;;5.73;;
4508;SDS011;2267;48.816;9.230;2023-06-24T00:05:07;7.00;;;6.40;;
4508;SDS011;2267;48.816;9.230;2023-06-24T00:07:35;6.63;;;5.93;;
4508;SDS011;2267;48.816;9.230;2023-06-24T00:10:12;6.43;;;5.83;;
4508;SDS011;2267;48.816;9.230;2023-06-24T00:12:42;7.07;;;6.47;;
4508;SDS011;2267;48.816;9.230;2023-06-24T00:15:09;6.60;;;6.00;;
4508;SDS011;2267;48.816;9.230;2023-06-24T00:17:36;6.67;;;6.07;;
4508;SDS011;2267;48.816;9.230;2023-06-24T00:20:03;6.73;;;5.97;;
4508;SDS011;2267;48.816;9.230;2023-06-24T00:22:33;6.70;;;6.10;;
4508;SDS011;2267;48.816;9.230;2023-06-24T00:25:00;6.10;;;5.60;;
4508;SDS011;2267;48.816;9.230;2023-06-24T00:27:27;6.23;;;5.73;;
4508;SDS011;2267;48.816;9.230;2023-06-24T00:29:54;6.20;;;5.60;;
4508;SDS011;2267;48.816;9.230;2023-06-24T00:32:21;6.13;;;5.63;;
4508;SDS011;2267;48.816;9.230;2023-06-24T00:34:47;5.90;;;5.30;;
4508;SDS011;2267;48.816;9.230;2023-06-24T00:37:16;6.47;;;5.87;;
4508;SDS011;2267;48.816;9.230;2023-06-24T00:39:43;6.50;;;5.90;;
4508;SDS011;2267;48.816;9.230;2023-06-24T00:42:10;7.17;;;5.70;;
4508;SDS011;2267;48.816;9.230;2023-06-24T00:44:37;7.40;;;6.33;;
4508;SDS011;2267;48.816;9.230;2023-06-24T00:47:05;6.50;;;5.03;;
4508;SDS011;2267;48.816;9.230;2023-06-24T00:49:34;5.77;;;5.10;;
4508;SDS011;2267;48.816;9.230;2023-06-24T00:52:01;6.20;;;5.70;;
4508;SDS011;2267;48.816;9.230;2023-06-24T00:54:28;6.20;;;5.70;;
4508;SDS011;2267;48.816;9.230;2023-06-24T00:56:58;6.43;;;5.47;;
4508;SDS011;2267;48.816;9.230;2023-06-24T00:59:28;5.30;;;4.90;;
4508;SDS011;2267;48.816;9.230;2023-06-24T01:01:56;5.70;;;5.20;;
4508;SDS011;2267;48.816;9.230;2023-06-24T01:04:24;6.40;;;5.80;;
4508;SDS011;2267;48.816;9.230;2023-06-24T01:06:51;6.03;;;5.50;;
4508;SDS011;2267;48.816;9.230;2023-06-24T01:09:19;6.17;;;5.63;;
4508;SDS011;2267;48.816;9.230;2023-06-24T01:11:47;5.20;;;4.80;;
4508;SDS011;2267;48.816;9.230;2023-06-24T01:14:14;5.67;;;5.00;;
4508;SDS011;2267;48.816;9.230;2023-06-24T01:25:44;5.80;;;5.30;;
4508;SDS011;2267;48.816;9.230;2023-06-24T01:34:24;6.20;;;5.60;;
4508;SDS011;2267;48.816;9.230;2023-06-24T01:37:12;5.70;;;5.20;;
4508;SDS011;2267;48.816;9.230;2023-06-24T01:39:54;5.13;;;4.63;;
4508;SDS011;2267;48.816;9.230;2023-06-24T01:42:27;6.17;;;5.57;;
4508;SDS011;2267;48.816;9.230;2023-06-24T01:44:56;6.30;;;5.80;;
4508;SDS011;2267;48.816;9.230;2023-06-24T01:47:25;6.00;;;5.50;;
4508;SDS011;2267;48.816;9.230;2023-06-24T01:49:54;5.90;;;5.40;;
4508;SDS011;2267;48.816;9.230;2023-06-24T01:52:24;6.37;;;5.77;;
4508;SDS011;2267;48.816;9.230;2023-06-24T01:54:53;8.40;;;6.03;;
4508;SDS011;2267;48.816;9.230;2023-06-24T01:57:22;6.13;;;5.53;;
4508;SDS011;2267;48.816;9.230;2023-06-24T01:59:52;6.03;;;5.33;;
4508;SDS011;2267;48.816;9.230;2023-06-24T02:02:21;5.57;;;5.10;;
4508;SDS011;2267;48.816;9.230;2023-06-24T02:04:50;6.80;;;6.20;;
4508;SDS011;2267;48.816;9.230;2023-06-24T02:07:19;6.97;;;6.37;;
4508;SDS011;2267;48.816;9.230;2023-06-24T02:09:46;6.67;;;6.10;;
4508;SDS011;2267;48.816;9.230;2023-06-24T02:12:14;8.27;;;7.57;;
4508;SDS011;2267;48.816;9.230;2023-06-24T02:14:42;6.97;;;6.37;;
4508;SDS011;2267;48.816;9.230;2023-06-24T02:17:09;9.33;;;8.43;;
4508;SDS011;2267;48.816;9.230;2023-06-24T02:19:38;8.40;;;7.50;;
4508;SDS011;2267;48.816;9.230;2023-06-24T02:22:05;8.67;;;7.97;;
4508;SDS011;2267;48.816;9.230;2023-06-24T02:24:39;8.70;;;7.80;;
4508;SDS011;2267;48.816;9.230;2023-06-24T02:27:07;9.00;;;8.30;;
4508;SDS011;2267;48.816;9.230;2023-06-24T02:29:35;9.20;;;8.30;;
4508;SDS011;2267;48.816;9.230;2023-06-24T02:32:03;8.83;;;7.70;;
4508;SDS011;2267;48.816;9.230;2023-06-24T02:34:30;9.10;;;8.33;;
4508;SDS011;2267;48.816;9.230;2023-06-24T02:36:57;9.40;;;8.60;;
4508;SDS011;2267;48.816;9.230;2023-06-24T02:39:24;9.83;;;8.93;;
4508;SDS011;2267;48.816;9.230;2023-06-24T02:41:51;9.43;;;8.53;;
4508;SDS011;2267;48.816;9.230;2023-06-24T02:44:18;9.10;;;8.30;;
4508;SDS011;2267;48.816;9.230;2023-06-24T02:46:45;9.33;;;8.37;;
4508;SDS011;2267;48.816;9.230;2023-06-24T02:49:14;8.77;;;7.97;;
4508;SDS011;2267;48.816;9.230;2023-06-24T02:51:44;9.23;;;8.43;;
4508;SDS011;2267;48.816;9.230;2023-06-24T02:54:11;8.33;;;7.63;;
4508;SDS011;2267;48.816;9.230;2023-06-24T02:56:39;9.03;;;8.03;;
4508;SDS011;2267;48.816;9.230;2023-06-24T02:59:08;8.63;;;7.80;;
4508;SDS011;2267;48.816;9.230;2023-06-24T03:01:35;8.57;;;7.77;;
4508;SDS011;2267;48.816;9.230;2023-06-24T03:04:05;7.93;;;7.20;;
4508;SDS011;2267;48.816;9.230;2023-06-24T03:06:32;8.50;;;7.70;;
4508;SDS011;2267;48.816;9.230;2023-06-24T03:09:02;9.30;;;8.40;;
4508;SDS011;2267;48.816;9.230;2023-06-24T03:11:30;8.93;;;8.03;;
4508;SDS011;2267;48.816;9.230;2023-06-24T03:13:57;10.50;;;8.50;;
4508;SDS011;2267;48.816;9.230;2023-06-24T03:16:25;9.30;;;8.40;;
4508;SDS011;2267;48.816;9.230;2023-06-24T03:18:52;7.83;;;7.13;;
4508;SDS011;2267;48.816;9.230;2023-06-24T03:21:19;8.93;;;7.97;;
4508;SDS011;2267;48.816;9.230;2023-06-24T03:23:46;8.87;;;7.97;;
4508;SDS011;2267;48.816;9.230;2023-06-24T03:26:13;8.77;;;7.87;;
4508;SDS011;2267;48.816;9.230;2023-06-24T03:28:39;9.37;;;8.57;;
4508;SDS011;2267;48.816;9.230;2023-06-24T03:31:06;8.30;;;7.50;;
4508;SDS011;2267;48.816;9.230;2023-06-24T03:33:33;8.27;;;7.27;;
4508;SDS011;2267;48.816;9.230;2023-06-24T03:36:00;8.57;;;7.77;;
4508;SDS011;2267;48.816;9.230;2023-06-24T03:38:27;8.83;;;8.03;;
4508;SDS011;2267;48.816;9.230;2023-06-24T03:40:54;8.13;;;7.53;;
4508;SDS011;2267;48.816;9.230;2023-06-24T03:43:21;8.43;;;7.73;;
4508;SDS011;2267;48.816;9.230;2023-06-24T03:45:47;8.40;;;7.70;;
4508;SDS011;2267;48.816;9.230;2023-06-24T03:48:14;8.77;;;7.97;;
4508;SDS011;2267;48.816;9.230;2023-06-24T03:50:41;7.93;;;7.23;;
4508;SDS011;2267;48.816;9.230;2023-06-24T03:53:08;8.70;;;8.00;;
4508;SDS011;2267;48.816;9.230;2023-06-24T03:55:35;7.73;;;7.13;;
4508;SDS011;2267;48.816;9.230;2023-06-24T03:58:02;8.27;;;7.47;;
4508;SDS011;2267;48.816;9.230;2023-06-24T04:00:29;7.60;;;7.00;;
4508;SDS011;2267;48.816;9.230;2023-06-24T04:02:55;8.53;;;7.70;;
4508;SDS011;2267;48.816;9.230;2023-06-24T04:05:22;8.70;;;7.90;;
4508;SDS011;2267;48.816;9.230;2023-06-24T04:07:50;8.10;;;7.40;;
4508;SDS011;2267;48.816;9.230;2023-06-24T04:10:18;7.80;;;7.20;;
4508;SDS011;2267;48.816;9.230;2023-06-24T04:12:45;9.50;;;7.50;;
4508;SDS011;2267;48.816;9.230;2023-06-24T04:15:12;7.77;;;7.10;;
4508;SDS011;2267;48.816;9.230;2023-06-24T04:17:39;7.50;;;6.83;;
4508;SDS011;2267;48.816;9.230;2023-06-24T04:20:06;7.63;;;6.93;;
4508;SDS011;2267;48.816;9.230;2023-06-24T04:22:36;7.70;;;7.00;;
4508;SDS011;2267;48.816;9.230;2023-06-24T04:25:07;7.63;;;7.03;;
4508;SDS011;2267;48.816;9.230;2023-06-24T04:27:35;8.93;;;8.03;;
4508;SDS011;2267;48.816;9.230;2023-06-24T04:30:02;7.90;;;7.20;;
4508;SDS011;2267;48.816;9.230;2023-06-24T04:32:30;8.50;;;7.80;;
4508;SDS011;2267;48.816;9.230;2023-06-24T04:34:59;8.57;;;7.87;;
4508;SDS011;2267;48.816;9.230;2023-06-24T04:37:27;8.00;;;7.37;;
4508;SDS011;2267;48.816;9.230;2023-06-24T04:39:54;8.27;;;7.47;;
4508;SDS011;2267;48.816;9.230;2023-06-24T04:42:21;7.53;;;6.93;;
4508;SDS011;2267;48.816;9.230;2023-06-24T04:44:49;8.17;;;7.37;;
4508;SDS011;2267;48.816;9.230;2023-06-24T04:47:17;7.83;;;7.20;;
4508;SDS011;2267;48.816;9.230;2023-06-24T04:49:44;8.57;;;7.67;;
4508;SDS011;2267;48.816;9.230;2023-06-24T04:52:12;7.30;;;6.60;;
4508;SDS011;2267;48.816;9.230;2023-06-24T04:54:39;7.67;;;6.97;;
4508;SDS011;2267;48.816;9.230;2023-06-24T04:57:06;6.97;;;6.33;;
4508;SDS011;2267;48.816;9.230;2023-06-24T04:59:35;7.87;;;7.10;;
4508;SDS011;2267;48.816;9.230;2023-06-24T05:02:02;7.50;;;6.80;;
4508;SDS011;2267;48.816;9.230;2023-06-24T05:04:29;7.03;;;6.43;;
4508;SDS011;2267;48.816;9.230;2023-06-24T05:06:56;7.60;;;6.90;;
4508;SDS011;2267;48.816;9.230;2023-06-24T05:09:23;7.17;;;6.47;;
4508;SDS011;2267;48.816;9.230;2023-06-24T05:11:49;6.93;;;6.43;;
4508;SDS011;2267;48.816;9.230;2023-06-24T05:14:16;6.50;;;5.83;;
4508;SDS011;2267;48.816;9.230;2023-06-24T05:16:43;7.43;;;6.83;;
4508;SDS011;2267;48.816;9.230;2023-06-24T05:19:11;7.40;;;6.70;;
4508;SDS011;2267;48.816;9.230;2023-06-24T05:21:38;6.90;;;6.30;;
4508;SDS011;2267;48.816;9.230;2023-06-24T05:24:05;7.03;;;6.47;;
4508;SDS011;2267;48.816;9.230;2023-06-24T05:26:32;6.60;;;6.03;;
4508;SDS011;2267;48.816;9.230;2023-06-24T05:28:58;7.00;;;6.40;;
4508;SDS011;2267;48.816;9.230;2023-06-24T05:31:25;7.20;;;6.53;;
4508;SDS011;2267;48.816;9.230;2023-06-24T05:33:52;7.63;;;7.00;;
4508;SDS011;2267;48.816;9.230;2023-06-24T05:36:19;6.30;;;5.80;;
4508;SDS011;2267;48.816;9.230;2023-06-24T05:38:46;7.40;;;6.80;;
4508;SDS011;2267;48.816;9.230;2023-06-24T05:41:14;7.77;;;7.07;;
4508;SDS011;2267;48.816;9.230;2023-06-24T05:43:42;7.93;;;7.20;;
4508;SDS011;2267;48.816;9.230;2023-06-24T05:46:10;8.00;;;7.20;;
4508;SDS011;2267;48.816;9.230;2023-06-24T05:48:37;7.57;;;6.90;;
4508;SDS011;2267;48.816;9.230;2023-06-24T05:51:04;7.00;;;6.33;;
4508;SDS011;2267;48.816;9.230;2023-06-24T05:53:30;7.30;;;6.70;;
4508;SDS011;2267;48.816;9.230;2023-06-24T05:55:57;7.47;;;6.77;;
4508;SDS011;2267;48.816;9.230;2023-06-24T05:58:24;7.60;;;6.50;;
4508;SDS011;2267;48.816;9.230;2023-06-24T06:00:51;7.90;;;7.20;;
4508;SDS011;2267;48.816;9.230;2023-06-24T06:03:18;7.40;;;6.80;;
4508;SDS011;2267;48.816;9.230;2023-06-24T06:05:45;6.90;;;6.20;;
4508;SDS011;2267;48.816;9.230;2023-06-24T06:08:12;7.03;;;6.43;;
4508;SDS011;2267;48.816;9.230;2023-06-24T06:10:38;7.10;;;6.50;;
4508;SDS011;2267;48.816;9.230;2023-06-24T06:13:05;7.73;;;6.40;;
4508;SDS011;2267;48.816;9.230;2023-06-24T06:15:32;6.80;;;6.30;;
4508;SDS011;2267;48.816;9.230;2023-06-24T06:17:59;7.97;;;6.67;;
4508;SDS011;2267;48.816;9.230;2023-06-24T06:20:26;7.03;;;6.33;;
4508;SDS011;2267;48.816;9.230;2023-06-24T06:22:53;8.43;;;6.23;;
4508;SDS011;2267;48.816;9.230;2023-06-24T06:25:20;6.60;;;6.00;;
4508;SDS011;2267;48.816;9.230;2023-06-24T06:27:47;9.80;;;7.33;;
4508;SDS011;2267;48.816;9.230;2023-06-24T06:30:14;7.00;;;5.90;;
4508;SDS011;2267;48.816;9.230;2023-06-24T06:32:41;7.63;;;6.93;;
4508;SDS011;2267;48.816;9.230;2023-06-24T06:35:07;7.10;;;6.27;;
4508;SDS011;2267;48.816;9.230;2023-06-24T06:37:34;6.33;;;5.80;;
4508;SDS011;2267;48.816;9.230;2023-06-24T06:40:01;6.27;;;5.77;;
4508;SDS011;2267;48.816;9.230;2023-06-24T06:42:29;6.47;;;5.87;;
4508;SDS011;2267;48.816;9.230;2023-06-24T06:44:56;6.10;;;5.50;;
4508;SDS011;2267;48.816;9.230;2023-06-24T06:47:23;6.57;;;5.97;;
4508;SDS011;2267;48.816;9.230;2023-06-24T06:49:49;6.23;;;5.73;;
4508;SDS011;2267;48.816;9.230;2023-06-24T06:52:16;6.63;;;6.00;;
4508;SDS011;2267;48.816;9.230;2023-06-24T06:54:43;6.10;;;5.57;;
4508;SDS011;2267;48.816;9.230;2023-06-24T06:57:10;6.20;;;5.70;;
4508;SDS011;2267;48.816;9.230;2023-06-24T06:59:37;6.20;;;5.70;;
4508;SDS011;2267;48.816;9.230;2023-06-24T07:02:03;5.63;;;5.17;;
4508;SDS011;2267;48.816;9.230;2023-06-24T07:04:31;6.47;;;5.87;;
4508;SDS011;2267;48.816;9.230;2023-06-24T07:06:58;6.03;;;5.53;;
4508;SDS011;2267;48.816;9.230;2023-06-24T07:09:25;5.37;;;4.87;;
4508;SDS011;2267;48.816;9.230;2023-06-24T07:11:52;5.93;;;5.43;;
4508;SDS011;2267;48.816;9.230;2023-06-24T07:14:19;6.57;;;5.50;;
4508;SDS011;2267;48.816;9.230;2023-06-24T07:16:46;5.70;;;5.20;;
4508;SDS011;2267;48.816;9.230;2023-06-24T07:19:12;6.00;;;5.50;;
4508;SDS011;2267;48.816;9.230;2023-06-24T07:21:39;6.13;;;5.27;;
4508;SDS011;2267;48.816;9.230;2023-06-24T07:24:06;6.00;;;5.40;;
4508;SDS011;2267;48.816;9.230;2023-06-24T07:26:33;5.90;;;5.30;;
4508;SDS011;2267;48.816;9.230;2023-06-24T07:29:00;5.00;;;4.60;;
4508;SDS011;2267;48.816;9.230;2023-06-24T07:31:35;6.10;;;5.53;;
4508;SDS011;2267;48.816;9.230;2023-06-24T07:34:02;5.00;;;4.60;;
4508;SDS011;2267;48.816;9.230;2023-06-24T07:36:29;5.37;;;4.87;;
4508;SDS011;2267;48.816;9.230;2023-06-24T07:38:56;4.90;;;4.50;;
4508;SDS011;2267;48.816;9.230;2023-06-24T07:41:23;5.20;;;4.70;;
4508;SDS011;2267;48.816;9.230;2023-06-24T07:43:50;5.27;;;4.77;;
4508;SDS011;2267;48.816;9.230;2023-06-24T07:46:17;5.23;;;4.80;;
4508;SDS011;2267;48.816;9.230;2023-06-24T07:48:44;5.70;;;5.20;;
4508;SDS011;2267;48.816;9.230;2023-06-24T07:51:11;4.83;;;4.33;;
4508;SDS011;2267;48.816;9.230;2023-06-24T07:53:38;4.17;;;3.77;;
4508;SDS011;2267;48.816;9.230;2023-06-24T07:56:04;5.90;;;4.83;;
4508;SDS011;2267;48.816;9.230;2023-06-24T07:58:31;4.93;;;4.50;;
4508;SDS011;2267;48.816;9.230;2023-06-24T08:00:59;5.30;;;4.90;;
4508;SDS011;2267;48.816;9.230;2023-06-24T08:03:26;5.53;;;4.37;;
4508;SDS011;2267;48.816;9.230;2023-06-24T08:05:55;4.80;;;4.40;;
4508;SDS011;2267;48.816;9.230;2023-06-24T08:08:22;4.90;;;4.40;;
4508;SDS011;2267;48.816;9.230;2023-06-24T08:10:49;4.77;;;4.27;;
4508;SDS011;2267;48.816;9.230;2023-06-24T08:13:16;4.93;;;4.53;;
4508;SDS011;2267;48.816;9.230;2023-06-24T08:15:43;5.07;;;4.60;;
4508;SDS011;2267;48.816;9.230;2023-06-24T08:18:11;4.60;;;4.20;;
4508;SDS011;2267;48.816;9.230;2023-06-24T08:20:37;5.63;;;5.03;;
4508;SDS011;2267;48.816;9.230;2023-06-24T08:23:04;5.10;;;4.60;;
4508;SDS011;2267;48.816;9.230;2023-06-24T08:25:31;4.83;;;4.43;;
4508;SDS011;2267;48.816;9.230;2023-06-24T08:27:58;5.60;;;4.67;;
4508;SDS011;2267;48.816;9.230;2023-06-24T08:30:25;5.73;;;4.97;;
4508;SDS011;2267;48.816;9.230;2023-06-24T08:32:52;4.33;;;3.93;;
4508;SDS011;2267;48.816;9.230;2023-06-24T08:35:19;5.23;;;4.73;;
4508;SDS011;2267;48.816;9.230;2023-06-24T08:37:46;6.90;;;4.20;;
4508;SDS011;2267;48.816;9.230;2023-06-24T08:40:12;5.00;;;4.50;;
4508;SDS011;2267;48.816;9.230;2023-06-24T08:42:39;4.40;;;4.00;;
4508;SDS011;2267;48.816;9.230;2023-06-24T08:45:06;4.70;;;4.30;;
4508;SDS011;2267;48.816;9.230;2023-06-24T08:47:33;4.23;;;3.83;;
4508;SDS011;2267;48.816;9.230;2023-06-24T08:50:03;3.93;;;3.53;;
4508;SDS011;2267;48.816;9.230;2023-06-24T08:52:32;4.40;;;4.00;;
4508;SDS011;2267;48.816;9.230;2023-06-24T08:55:02;4.53;;;3.50;;
4508;SDS011;2267;48.816;9.230;2023-06-24T08:57:32;5.97;;;3.80;;
4508;SDS011;2267;48.816;9.230;2023-06-24T08:59:59;5.20;;;4.33;;
4508;SDS011;2267;48.816;9.230;2023-06-24T09:02:26;4.87;;;4.37;;
4508;SDS011;2267;48.816;9.230;2023-06-24T09:04:54;4.90;;;4.50;;
4508;SDS011;2267;48.816;9.230;2023-06-24T09:07:27;3.77;;;3.47;;
4508;SDS011;2267;48.816;9.230;2023-06-24T09:09:55;4.03;;;3.67;;
4508;SDS011;2267;48.816;9.230;2023-06-24T09:12:23;4.20;;;3.70;;
4508;SDS011;2267;48.816;9.230;2023-06-24T09:14:51;4.47;;;4.07;;
4508;SDS011;2267;48.816;9.230;2023-06-24T09:17:18;4.83;;;4.07;;
4508;SDS011;2267;48.816;9.230;2023-06-24T09:19:49;4.40;;;4.00;;
4508;SDS011;2267;48.816;9.230;2023-06-24T09:22:17;4.90;;;4.13;;
4508;SDS011;2267;48.816;9.230;2023-06-24T09:24:45;4.27;;;3.87;;
4508;SDS011;2267;48.816;9.230;2023-06-24T09:27:16;5.30;;;4.23;;
4508;SDS011;2267;48.816;9.230;2023-06-24T09:29:48;5.33;;;4.03;;
4508;SDS011;2267;48.816;9.230;2023-06-24T09:32:15;4.17;;;3.77;;
4508;SDS011;2267;48.816;9.230;2023-06-24T09:34:43;3.90;;;3.60;;
4508;SDS011;2267;48.816;9.230;2023-06-24T09:37:10;5.00;;;4.50;;
4508;SDS011;2267;48.816;9.230;2023-06-24T09:39:47;4.10;;;3.67;;
4508;SDS011;2267;48.816;9.230;2023-06-24T09:42:14;6.70;;;4.13;;
4508;SDS011;2267;48.816;9.230;2023-06-24T09:44:41;5.00;;;4.20;;
4508;SDS011;2267;48.816;9.230;2023-06-24T09:47:08;3.90;;;3.30;;
4508;SDS011;2267;48.816;9.230;2023-06-24T09:49:35;4.83;;;3.63;;
4508;SDS011;2267;48.816;9.230;2023-06-24T09:52:02;4.60;;;3.43;;
4508;SDS011;2267;48.816;9.230;2023-06-24T09:54:32;4.07;;;3.73;;
4508;SDS011;2267;48.816;9.230;2023-06-24T09:57:03;4.10;;;3.40;;
4508;SDS011;2267;48.816;9.230;2023-06-24T09:59:31;4.40;;;4.00;;
4508;SDS011;2267;48.816;9.230;2023-06-24T10:02:00;4.00;;;3.70;;
4508;SDS011;2267;48.816;9.230;2023-06-24T10:04:29;4.20;;;3.80;;
4508;SDS011;2267;48.816;9.230;2023-06-24T10:06:58;4.60;;;4.20;;
4508;SDS011;2267;48.816;9.230;2023-06-24T10:09:26;4.10;;;3.73;;
4508;SDS011;2267;48.816;9.230;2023-06-24T10:11:53;3.17;;;2.87;;
4508;SDS011;2267;48.816;9.230;2023-06-24T10:14:20;3.27;;;2.90;;
4508;SDS011;2267;48.816;9.230;2023-06-24T10:16:47;3.53;;;2.97;;
4508;SDS011;2267;48.816;9.230;2023-06-24T10:19:23;3.77;;;2.90;;
4508;SDS011;2267;48.816;9.230;2023-06-24T10:21:54;3.13;;;2.83;;
4508;SDS011;2267;48.816;9.230;2023-06-24T10:24:46;3.30;;;3.00;;
4508;SDS011;2267;48.816;9.230;2023-06-24T10:27:14;3.33;;;2.83;;
4508;SDS011;2267;48.816;9.230;2023-06-24T10:29:45;3.40;;;3.10;;
4508;SDS011;2267;48.816;9.230;2023-06-24T10:32:13;4.07;;;3.30;;
4508;SDS011;2267;48.816;9.230;2023-06-24T10:34:41;3.33;;;3.03;;
4508;SDS011;2267;48.816;9.230;2023-06-24T10:44:50;3.80;;;3.40;;
4508;SDS011;2267;48.816;9.230;2023-06-24T10:47:18;3.80;;;3.40;;
4508;SDS011;2267;48.816;9.230;2023-06-24T10:49:45;3.60;;;3.30;;
4508;SDS011;2267;48.816;9.230;2023-06-24T10:52:12;3.63;;;3.30;;
4508;SDS011;2267;48.816;9.230;2023-06-24T10:54:40;3.80;;;3.47;;
4508;SDS011;2267;48.816;9.230;2023-06-24T10:57:07;4.20;;;3.80;;
4508;SDS011;2267;48.816;9.230;2023-06-24T10:59:44;3.27;;;2.97;;
4508;SDS011;2267;48.816;9.230;2023-06-24T11:02:14;4.33;;;3.93;;
4508;SDS011;2267;48.816;9.230;2023-06-24T11:04:46;3.80;;;3.50;;
4508;SDS011;2267;48.816;9.230;2023-06-24T11:07:24;4.67;;;3.57;;
4508;SDS011;2267;48.816;9.230;2023-06-24T11:09:53;4.00;;;3.40;;
4508;SDS011;2267;48.816;9.230;2023-06-24T11:12:28;3.90;;;3.50;;
4508;SDS011;2267;48.816;9.230;2023-06-24T11:14:57;4.10;;;3.80;;
4508;SDS011;2267;48.816;9.230;2023-06-24T11:17:25;4.33;;;3.47;;
4508;SDS011;2267;48.816;9.230;2023-06-24T11:19:53;4.27;;;3.97;;
4508;SDS011;2267;48.816;9.230;2023-06-24T11:22:21;4.80;;;4.30;;
4508;SDS011;2267;48.816;9.230;2023-06-24T11:24:48;4.00;;;3.70;;
4508;SDS011;2267;48.816;9.230;2023-06-24T11:27:16;4.23;;;3.83;;
4508;SDS011;2267;48.816;9.230;2023-06-24T11:29:51;3.97;;;3.57;;
4508;SDS011;2267;48.816;9.230;2023-06-24T11:32:18;4.17;;;3.77;;
4508;SDS011;2267;48.816;9.230;2023-06-24T11:34:46;4.60;;;4.13;;
4508;SDS011;2267;48.816;9.230;2023-06-24T11:37:13;5.67;;;3.80;;
4508;SDS011;2267;48.816;9.230;2023-06-24T11:39:42;5.10;;;4.60;;
4508;SDS011;2267;48.816;9.230;2023-06-24T11:42:10;3.57;;;3.23;;
4508;SDS011;2267;48.816;9.230;2023-06-24T11:44:41;3.80;;;2.97;;
4508;SDS011;2267;48.816;9.230;2023-06-24T11:47:11;4.77;;;4.10;;
4508;SDS011;2267;48.816;9.230;2023-06-24T11:49:51;3.90;;;3.50;;
4508;SDS011;2267;48.816;9.230;2023-06-24T11:52:19;4.63;;;3.37;;
4508;SDS011;2267;48.816;9.230;2023-06-24T11:54:53;3.37;;;2.87;;
4508;SDS011;2267;48.816;9.230;2023-06-24T11:57:20;3.80;;;3.50;;
4508;SDS011;2267;48.816;9.230;2023-06-24T11:59:47;3.40;;;3.10;;
4508;SDS011;2267;48.816;9.230;2023-06-24T12:02:18;4.53;;;3.37;;
4508;SDS011;2267;48.816;9.230;2023-06-24T12:04:46;3.50;;;3.20;;
4508;SDS011;2267;48.816;9.230;2023-06-24T12:07:14;4.27;;;3.20;;
4508;SDS011;2267;48.816;9.230;2023-06-24T12:09:41;3.70;;;2.87;;
4508;SDS011;2267;48.816;9.230;2023-06-24T12:12:08;3.57;;;3.27;;
4508;SDS011;2267;48.816;9.230;2023-06-24T12:14:35;3.20;;;2.90;;
4508;SDS011;2267;48.816;9.230;2023-06-24T12:17:02;3.20;;;2.90;;
4508;SDS011;2267;48.816;9.230;2023-06-24T12:19:29;3.80;;;3.37;;
4508;SDS011;2267;48.816;9.230;2023-06-24T12:21:55;5.13;;;3.57;;
4508;SDS011;2267;48.816;9.230;2023-06-24T12:24:22;3.40;;;3.10;;
4508;SDS011;2267;48.816;9.230;2023-06-24T12:26:49;3.63;;;3.33;;
4508;SDS011;2267;48.816;9.230;2023-06-24T12:29:17;4.70;;;3.07;;
4508;SDS011;2267;48.816;9.230;2023-06-24T12:31:45;3.40;;;3.10;;
4508;SDS011;2267;48.816;9.230;2023-06-24T12:34:12;3.60;;;3.30;;
4508;SDS011;2267;48.816;9.230;2023-06-24T12:36:39;3.10;;;2.80;;
4508;SDS011;2267;48.816;9.230;2023-06-24T12:39:06;4.83;;;3.53;;
4508;SDS011;2267;48.816;9.230;2023-06-24T12:41:32;2.87;;;2.57;;
4508;SDS011;2267;48.816;9.230;2023-06-24T12:43:59;3.10;;;2.80;;
4508;SDS011;2267;48.816;9.230;2023-06-24T12:46:26;3.70;;;3.10;;
4508;SDS011;2267;48.816;9.230;2023-06-24T12:48:53;3.80;;;3.40;;
4508;SDS011;2267;48.816;9.230;2023-06-24T12:51:20;4.73;;;3.57;;
4508;SDS011;2267;48.816;9.230;2023-06-24T12:53:46;3.50;;;3.20;;
4508;SDS011;2267;48.816;9.230;2023-06-24T12:56:13;5.43;;;3.53;;
4508;SDS011;2267;48.816;9.230;2023-06-24T12:58:40;4.03;;;3.30;;
4508;SDS011;2267;48.816;9.230;2023-06-24T13:01:07;3.30;;;2.97;;
4508;SDS011;2267;48.816;9.230;2023-06-24T13:03:33;3.70;;;3.40;;
4508;SDS011;2267;48.816;9.230;2023-06-24T13:06:01;3.73;;;3.43;;
4508;SDS011;2267;48.816;9.230;2023-06-24T13:08:27;4.60;;;3.87;;
4508;SDS011;2267;48.816;9.230;2023-06-24T13:10:54;3.30;;;3.00;;
4508;SDS011;2267;48.816;9.230;2023-06-24T13:13:21;3.40;;;3.10;;
4508;SDS011;2267;48.816;9.230;2023-06-24T13:15:48;5.27;;;2.80;;
4508;SDS011;2267;48.816;9.230;2023-06-24T13:18:15;3.70;;;3.00;;
4508;SDS011;2267;48.816;9.230;2023-06-24T13:20:44;4.43;;;3.30;;
4508;SDS011;2267;48.816;9.230;2023-06-24T13:23:11;4.20;;;3.27;;
4508;SDS011;2267;48.816;9.230;2023-06-24T13:25:38;3.60;;;3.30;;
4508;SDS011;2267;48.816;9.230;2023-06-24T13:28:05;3.27;;;2.97;;
4508;SDS011;2267;48.816;9.230;2023-06-24T13:30:32;3.73;;;3.13;;
4508;SDS011;2267;48.816;9.230;2023-06-24T13:32:59;3.40;;;3.00;;
4508;SDS011;2267;48.816;9.230;2023-06-24T13:35:26;3.77;;;3.40;;
4508;SDS011;2267;48.816;9.230;2023-06-24T13:37:53;3.33;;;3.03;;
4508;SDS011;2267;48.816;9.230;2023-06-24T13:40:19;5.00;;;3.63;;
4508;SDS011;2267;48.816;9.230;2023-06-24T13:42:46;4.23;;;3.83;;
4508;SDS011;2267;48.816;9.230;2023-06-24T13:45:13;3.80;;;3.40;;
4508;SDS011;2267;48.816;9.230;2023-06-24T13:47:40;3.57;;;3.27;;
4508;SDS011;2267;48.816;9.230;2023-06-24T13:50:07;3.40;;;3.10;;
4508;SDS011;2267;48.816;9.230;2023-06-24T13:52:35;2.90;;;2.60;;
4508;SDS011;2267;48.816;9.230;2023-06-24T13:55:01;3.30;;;2.93;;
4508;SDS011;2267;48.816;9.230;2023-06-24T13:57:28;3.10;;;2.80;;
4508;SDS011;2267;48.816;9.230;2023-06-24T13:59:55;4.07;;;3.67;;
4508;SDS011;2267;48.816;9.230;2023-06-24T14:02:22;3.50;;;3.20;;
4508;SDS011;2267;48.816;9.230;2023-06-24T14:04:49;3.70;;;3.40;;
4508;SDS011;2267;48.816;9.230;2023-06-24T14:07:16;3.20;;;2.90;;
4508;SDS011;2267;48.816;9.230;2023-06-24T14:09:43;3.67;;;3.37;;
4508;SDS011;2267;48.816;9.230;2023-06-24T14:12:10;3.70;;;3.37;;
4508;SDS011;2267;48.816;9.230;2023-06-24T14:14:37;3.60;;;3.30;;
4508;SDS011;2267;48.816;9.230;2023-06-24T14:17:07;3.30;;;2.90;;
4508;SDS011;2267;48.816;9.230;2023-06-24T14:19:36;3.37;;;3.07;;
4508;SDS011;2267;48.816;9.230;2023-06-24T14:22:03;3.70;;;2.90;;
4508;SDS011;2267;48.816;9.230;2023-06-24T14:24:30;4.30;;;3.90;;
4508;SDS011;2267;48.816;9.230;2023-06-24T14:26:57;4.87;;;3.10;;
4508;SDS011;2267;48.816;9.230;2023-06-24T14:29:24;3.20;;;2.90;;
4508;SDS011;2267;48.816;9.230;2023-06-24T14:31:51;3.53;;;3.23;;
4508;SDS011;2267;48.816;9.230;2023-06-24T14:34:19;3.60;;;3.30;;
4508;SDS011;2267;48.816;9.230;2023-06-24T14:36:45;3.20;;;2.87;;
4508;SDS011;2267;48.816;9.230;2023-06-24T14:39:14;3.70;;;3.10;;
4508;SDS011;2267;48.816;9.230;2023-06-24T14:41:43;3.60;;;3.30;;
4508;SDS011;2267;48.816;9.230;2023-06-24T14:44:10;3.77;;;3.47;;
4508;SDS011;2267;48.816;9.230;2023-06-24T14:46:37;3.20;;;2.90;;
4508;SDS011;2267;48.816;9.230;2023-06-24T14:49:04;3.60;;;3.30;;
4508;SDS011;2267;48.816;9.230;2023-06-24T14:51:31;4.27;;;3.87;;
4508;SDS011;2267;48.816;9.230;2023-06-24T14:53:58;4.57;;;3.77;;
4508;SDS011;2267;48.816;9.230;2023-06-24T14:56:25;4.30;;;3.57;;
4508;SDS011;2267;48.816;9.230;2023-06-24T14:58:51;3.67;;;3.37;;
4508;SDS011;2267;48.816;9.230;2023-06-24T15:01:18;3.37;;;3.07;;
4508;SDS011;2267;48.816;9.230;2023-06-24T15:03:45;4.60;;;2.90;;
4508;SDS011;2267;48.816;9.230;2023-06-24T15:06:12;3.27;;;2.97;;
4508;SDS011;2267;48.816;9.230;2023-06-24T15:08:39;3.17;;;2.90;;
4508;SDS011;2267;48.816;9.230;2023-06-24T15:11:06;3.90;;;3.03;;
4508;SDS011;2267;48.816;9.230;2023-06-24T15:13:33;3.53;;;3.23;;
4508;SDS011;2267;48.816;9.230;2023-06-24T15:16:00;4.03;;;3.63;;
4508;SDS011;2267;48.816;9.230;2023-06-24T15:18:26;3.50;;;3.20;;
4508;SDS011;2267;48.816;9.230;2023-06-24T15:20:53;3.13;;;2.83;;
4508;SDS011;2267;48.816;9.230;2023-06-24T15:23:20;4.50;;;3.33;;
4508;SDS011;2267;48.816;9.230;2023-06-24T15:25:47;3.43;;;3.07;;
4508;SDS011;2267;48.816;9.230;2023-06-24T15:28:16;3.80;;;3.30;;
4508;SDS011;2267;48.816;9.230;2023-06-24T15:30:43;3.77;;;3.37;;
4508;SDS011;2267;48.816;9.230;2023-06-24T15:33:09;3.93;;;3.63;;
4508;SDS011;2267;48.816;9.230;2023-06-24T15:35:36;4.50;;;4.10;;
4508;SDS011;2267;48.816;9.230;2023-06-24T15:38:04;3.50;;;3.20;;
4508;SDS011;2267;48.816;9.230;2023-06-24T15:40:31;3.97;;;3.63;;